Time;durP1;ratioP1;P1;durP2;ratioP2;P2;SDS_P1;SDS_P2;PMS_P1;PMS_P2;Temp;Humidity;BMP_temperature;BMP_pressure;BME280_temperature;BME280_humidity;BME280_pressure;Samples;Min_cycle;Max_cycle;Signal;HPM_P1;HPM_P2
2023/06/01 00:02:03;;;;;;;8.33;3.27;;;18.80;59.70;;;;;;5062636;28;20491;-63
2023/06/01 00:04:43;;;;;;;7.87;3.30;;;18.70;59.80;;;;;;5062523;28;20476;-64
2023/06/01 00:07:20;;;;;;;7.20;3.20;;;18.60;59.80;;;;;;5065716;28;20458;-63
2023/06/01 00:10:00;;;;;;;6.43;3.37;;;18.60;59.80;;;;;;5069283;28;20935;-63
2023/06/01 00:12:32;;;;;;;5.77;3.07;;;18.50;59.90;;;;;;5067410;28;20991;-64
2023/06/01 00:15:16;;;;;;;6.30;3.13;;;18.50;60.00;;;;;;5066730;28;21011;-63
2023/06/01 00:17:53;;;;;;;10.30;3.40;;;18.50;60.10;;;;;;5064268;28;20539;-64
2023/06/01 00:20:28;;;;;;;8.40;3.27;;;18.40;60.10;;;;;;5062797;28;20461;-63
2023/06/01 00:23:08;;;;;;;10.00;3.37;;;18.30;60.20;;;;;;5065818;28;21036;-63
2023/06/01 00:25:48;;;;;;;8.33;3.47;;;18.20;60.30;;;;;;5062110;28;20571;-63
2023/06/01 00:28:22;;;;;;;9.70;4.10;;;18.10;60.50;;;;;;5064682;28;20935;-64
2023/06/01 00:30:56;;;;;;;6.13;3.20;;;18.10;60.60;;;;;;5064363;28;20466;-63
2023/06/01 00:33:24;;;;;;;8.07;3.30;;;18.10;60.60;;;;;;5064593;28;20484;-63
2023/06/01 00:35:58;;;;;;;7.60;2.90;;;18.10;60.70;;;;;;5063609;28;20480;-63
2023/06/01 00:38:38;;;;;;;6.90;3.20;;;18.10;60.70;;;;;;5063825;28;20469;-63
2023/06/01 00:41:17;;;;;;;5.60;2.70;;;18.10;60.80;;;;;;5065134;28;20470;-63
2023/06/01 00:43:54;;;;;;;6.37;3.30;;;18.00;60.80;;;;;;5062871;28;20483;-63
2023/06/01 00:46:28;;;;;;;6.80;3.00;;;18.00;60.80;;;;;;5083569;28;20461;-63
2023/06/01 00:48:59;;;;;;;7.03;2.77;;;17.90;60.90;;;;;;5063278;28;20460;-63
2023/06/01 00:51:37;;;;;;;7.30;3.30;;;17.90;60.90;;;;;;5063071;28;20470;-63
2023/06/01 00:54:14;;;;;;;6.27;3.00;;;17.80;60.90;;;;;;5065893;28;20813;-63
2023/06/01 00:56:49;;;;;;;8.90;3.70;;;17.70;60.90;;;;;;5064096;28;20466;-63
2023/06/01 00:59:24;;;;;;;6.53;2.43;;;17.60;61.10;;;;;;5066120;28;20477;-63
2023/06/01 01:06:30;;;;;;;8.33;3.43;;;17.50;61.40;;;;;;5064668;28;20519;-63
2023/06/01 01:09:21;;;;;;;6.37;3.10;;;17.40;61.40;;;;;;5063984;28;20480;-63
2023/06/01 01:12:04;;;;;;;6.60;3.27;;;17.40;61.40;;;;;;5065191;28;20464;-63
2023/06/01 01:14:52;;;;;;;10.10;3.50;;;17.40;61.40;;;;;;5064127;28;20463;-63
2023/06/01 01:17:32;;;;;;;14.07;3.57;;;17.40;61.50;;;;;;5065382;28;20828;-63
2023/06/01 01:20:12;;;;;;;7.83;3.17;;;17.40;61.50;;;;;;5063252;28;20478;-62
2023/06/01 01:23:11;;;;;;;14.47;3.80;;;17.40;61.60;;;;;;5068471;28;20461;-63
2023/06/01 01:26:16;;;;;;;6.33;3.30;;;17.30;61.50;;;;;;5064992;28;21079;-63
2023/06/01 01:29:03;;;;;;;6.30;3.10;;;17.30;61.60;;;;;;5052084;28;20467;-62
2023/06/01 01:31:36;;;;;;;7.13;3.03;;;17.20;61.50;;;;;;5080897;28;20490;-63
2023/06/01 01:34:08;;;;;;;6.80;3.70;;;17.20;61.60;;;;;;5063105;28;20468;-62
2023/06/01 01:36:43;;;;;;;7.87;3.10;;;17.20;61.60;;;;;;5062607;28;20481;-62
2023/06/01 01:39:23;;;;;;;6.63;3.00;;;17.20;61.70;;;;;;5064242;28;20525;-63
2023/06/01 01:42:22;;;;;;;7.20;3.33;;;17.20;61.70;;;;;;5082886;28;20468;-62
2023/06/01 01:45:00;;;;;;;7.83;3.30;;;17.10;61.70;;;;;;5062593;28;20510;-63
2023/06/01 01:47:42;;;;;;;8.20;3.13;;;17.00;61.70;;;;;;5083712;28;20536;-63
2023/06/01 01:50:14;;;;;;;7.60;3.10;;;17.00;61.80;;;;;;5061820;28;20476;-63
2023/06/01 01:52:47;;;;;;;5.50;2.60;;;17.00;61.80;;;;;;5080343;28;20466;-63
2023/06/01 01:55:23;;;;;;;7.00;3.07;;;16.90;61.90;;;;;;5065499;28;20515;-63
2023/06/01 01:57:56;;;;;;;10.43;3.50;;;16.90;61.90;;;;;;5042564;28;20494;-63
2023/06/01 02:00:41;;;;;;;5.90;3.10;;;16.90;61.90;;;;;;5059324;28;20520;-62
2023/06/01 02:03:21;;;;;;;6.20;3.00;;;16.90;62.00;;;;;;5080973;28;20888;-63
2023/06/01 02:06:02;;;;;;;7.97;3.50;;;16.90;62.00;;;;;;5062491;28;20472;-63
2023/06/01 02:08:35;;;;;;;6.80;3.30;;;16.90;61.90;;;;;;5060531;28;20461;-63
2023/06/01 02:11:14;;;;;;;8.33;3.20;;;16.80;62.00;;;;;;5064521;28;20497;-63
2023/06/01 02:13:48;;;;;;;8.77;3.23;;;16.80;62.00;;;;;;5056908;28;20469;-63
2023/06/01 02:16:27;;;;;;;8.03;3.27;;;16.80;62.00;;;;;;5061504;28;20461;-64
2023/06/01 02:18:58;;;;;;;5.63;2.93;;;16.80;62.10;;;;;;5061188;28;20554;-63
2023/06/01 02:21:32;;;;;;;7.00;3.30;;;16.80;62.00;;;;;;5062736;28;20475;-63
2023/06/01 02:24:07;;;;;;;8.20;3.07;;;16.80;62.10;;;;;;5072038;28;21051;-63
2023/06/01 02:26:40;;;;;;;8.53;3.20;;;16.80;62.10;;;;;;5063229;28;20460;-63
2023/06/01 02:29:10;;;;;;;8.50;3.10;;;16.70;62.00;;;;;;5092869;28;20553;-63
2023/06/01 02:31:49;;;;;;;6.60;3.40;;;16.70;62.10;;;;;;5062122;28;20517;-63
2023/06/01 02:34:31;;;;;;;6.70;2.80;;;16.70;62.20;;;;;;5064334;28;20461;-63
2023/06/01 02:37:11;;;;;;;6.20;2.93;;;16.60;62.10;;;;;;5064385;28;20465;-63
2023/06/01 02:39:52;;;;;;;8.13;2.83;;;16.60;62.10;;;;;;5059345;28;20556;-63
2023/06/01 02:42:27;;;;;;;7.70;2.80;;;16.60;62.10;;;;;;5061208;28;20772;-63
2023/06/01 02:45:04;;;;;;;5.50;2.73;;;16.50;62.20;;;;;;5060754;28;20479;-63
2023/06/01 02:47:45;;;;;;;8.80;3.60;;;16.50;62.20;;;;;;5060889;28;20460;-63
2023/06/01 02:50:19;;;;;;;6.13;3.13;;;16.40;62.20;;;;;;5064492;28;20457;-63
2023/06/01 02:52:59;;;;;;;7.43;3.20;;;16.30;62.20;;;;;;5061074;28;20463;-63
2023/06/01 02:55:32;;;;;;;7.53;2.80;;;16.30;62.30;;;;;;5058622;28;20522;-63
2023/06/01 02:58:21;;;;;;;8.10;2.70;;;16.20;62.40;;;;;;5063761;28;20451;-63
2023/06/01 03:01:01;;;;;;;7.53;2.90;;;16.10;62.50;;;;;;5062318;28;20564;-63
2023/06/01 03:03:36;;;;;;;6.40;3.13;;;16.10;62.50;;;;;;5058357;28;20459;-63
2023/06/01 03:06:13;;;;;;;11.43;3.60;;;16.10;62.60;;;;;;5059943;28;21024;-63
2023/06/01 03:09:12;;;;;;;6.90;3.80;;;16.10;62.60;;;;;;5056390;28;20458;-63
2023/06/01 03:12:02;;;;;;;6.40;3.33;;;16.10;62.70;;;;;;5060459;28;20456;-63
2023/06/01 03:14:40;;;;;;;10.50;4.30;;;16.10;62.70;;;;;;5063609;28;20451;-63
2023/06/01 03:17:17;;;;;;;7.37;3.30;;;16.10;62.70;;;;;;5065368;28;20577;-63
2023/06/01 03:19:53;;;;;;;7.80;3.07;;;16.10;62.80;;;;;;5064348;28;20822;-63
2023/06/01 03:22:27;;;;;;;7.40;3.53;;;16.10;62.80;;;;;;5065219;28;20464;-63
2023/06/01 03:25:06;;;;;;;7.03;3.33;;;16.10;62.80;;;;;;5063128;28;20477;-63
2023/06/01 03:27:47;;;;;;;7.53;3.13;;;16.00;62.80;;;;;;5062925;28;20453;-64
2023/06/01 03:30:18;;;;;;;5.93;3.47;;;16.00;62.90;;;;;;5066667;28;21247;-61
2023/06/01 03:33:03;;;;;;;8.87;3.80;;;16.00;62.90;;;;;;5087065;28;20459;-61
2023/06/01 03:38:44;;;;;;;6.20;3.07;;;16.00;62.90;;;;;;5152040;27;20595;-62
2023/06/01 03:41:23;;;;;;;8.07;2.97;;;16.00;63.00;;;;;;5120752;27;20461;-62
2023/06/01 03:46:41;;;;;;;10.37;3.40;;;15.90;63.00;;;;;;5118926;27;20666;-62
2023/06/01 03:49:11;;;;;;;9.67;3.80;;;15.90;63.10;;;;;;5139273;27;20488;-62
2023/06/01 03:51:49;;;;;;;7.87;3.80;;;15.90;63.10;;;;;;5137557;27;20460;-61
2023/06/01 03:54:27;;;;;;;13.10;3.63;;;15.90;63.10;;;;;;5137618;27;20583;-62
2023/06/01 03:57:01;;;;;;;6.37;2.60;;;15.90;63.20;;;;;;5110676;27;20487;-63
2023/06/01 03:59:33;;;;;;;7.03;3.90;;;15.90;63.20;;;;;;5117287;27;20542;-62
2023/06/01 04:02:15;;;;;;;6.60;3.70;;;15.90;63.20;;;;;;5082746;27;21117;-62
2023/06/01 04:04:50;;;;;;;6.57;3.60;;;15.90;63.20;;;;;;5079372;28;20470;-63
2023/06/01 04:07:25;;;;;;;7.60;3.67;;;15.90;63.30;;;;;;5077971;28;21040;-64
2023/06/01 04:10:00;;;;;;;8.33;3.73;;;16.00;63.40;;;;;;5060517;28;20455;-63
2023/06/01 04:12:41;;;;;;;8.50;3.47;;;16.10;63.30;;;;;;5077370;28;20468;-62
2023/06/01 04:15:13;;;;;;;9.37;4.03;;;16.10;63.30;;;;;;5077716;28;20557;-62
2023/06/01 04:17:53;;;;;;;10.67;3.63;;;16.20;63.30;;;;;;5061755;28;20478;-62
2023/06/01 04:20:31;;;;;;;6.70;3.53;;;16.30;63.20;;;;;;5061459;28;20552;-62
2023/06/01 04:23:06;;;;;;;7.83;4.10;;;16.40;63.20;;;;;;5062366;28;20503;-61
2023/06/01 04:25:44;;;;;;;7.60;4.30;;;16.50;63.20;;;;;;5070508;28;20574;-62
2023/06/01 04:28:25;;;;;;;8.10;3.30;;;16.60;63.20;;;;;;5077760;28;20469;-61
2023/06/01 04:31:03;;;;;;;7.37;3.30;;;16.70;63.20;;;;;;5066580;28;20487;-63
2023/06/01 04:33:52;;;;;;;9.30;4.03;;;16.80;63.20;;;;;;5097011;28;20444;-65
2023/06/01 04:36:28;;;;;;;9.27;3.57;;;17.00;63.10;;;;;;5096681;28;20460;-63
2023/06/01 04:39:12;;;;;;;10.23;3.80;;;17.10;63.10;;;;;;5081645;28;20460;-62
2023/06/01 04:41:58;;;;;;;10.27;4.30;;;17.30;63.10;;;;;;5083593;28;20467;-63
2023/06/01 04:44:41;;;;;;;11.33;3.93;;;17.50;63.10;;;;;;5095729;28;20568;-63
2023/06/01 04:47:16;;;;;;;8.20;3.90;;;17.70;63.00;;;;;;5098964;28;20460;-62
2023/06/01 04:49:53;;;;;;;9.33;3.80;;;17.90;63.00;;;;;;5086248;28;20560;-63
2023/06/01 04:52:28;;;;;;;8.13;3.70;;;18.00;62.90;;;;;;5070865;28;20492;-63
2023/06/01 04:55:04;;;;;;;7.23;3.17;;;18.20;62.80;;;;;;5063591;28;20547;-63
2023/06/01 04:57:47;;;;;;;8.80;3.50;;;18.40;62.70;;;;;;5071206;28;20997;-63
2023/06/01 05:00:24;;;;;;;7.23;3.60;;;18.50;62.60;;;;;;5083898;28;20826;-63
2023/06/01 05:02:58;;;;;;;9.53;3.70;;;18.70;62.50;;;;;;5086155;28;20478;-63
2023/06/01 05:05:28;;;;;;;7.70;3.80;;;18.90;62.40;;;;;;5084451;28;20466;-63
2023/06/01 05:08:05;;;;;;;7.70;3.50;;;19.00;62.30;;;;;;5087207;28;20460;-63
2023/06/01 05:10:38;;;;;;;7.70;4.13;;;19.20;62.30;;;;;;5062871;28;20525;-63
2023/06/01 05:13:15;;;;;;;8.10;3.90;;;19.30;62.20;;;;;;5082930;28;20517;-63
2023/06/01 05:15:46;;;;;;;6.70;3.50;;;19.50;62.20;;;;;;5068099;28;20464;-63
2023/06/01 05:18:21;;;;;;;6.50;3.70;;;19.60;62.30;;;;;;5087075;28;20585;-62
2023/06/01 05:20:52;;;;;;;6.73;3.70;;;19.80;62.30;;;;;;5065153;28;20463;-62
2023/06/01 05:23:27;;;;;;;12.70;3.90;;;19.90;62.40;;;;;;5082702;28;21003;-63
2023/06/01 05:26:03;;;;;;;7.83;3.93;;;20.00;62.50;;;;;;5086279;28;20497;-63
2023/06/01 05:28:49;;;;;;;9.07;4.40;;;20.20;62.70;;;;;;5071256;28;20465;-62
2023/06/01 05:31:23;;;;;;;7.07;3.27;;;20.60;63.10;;;;;;5085968;28;20884;-63
2023/06/01 05:34:05;;;;;;;8.50;4.40;;;21.20;63.00;;;;;;5084777;28;20461;-63
2023/06/01 05:36:40;;;;;;;8.23;4.00;;;22.10;61.80;;;;;;5087961;28;20448;-63
2023/06/01 05:39:27;;;;;;;7.33;3.27;;;23.20;60.30;;;;;;5087469;28;20502;-63
2023/06/01 05:42:02;;;;;;;7.70;3.57;;;24.20;59.00;;;;;;5068938;28;20477;-63
2023/06/01 05:44:40;;;;;;;7.10;3.30;;;25.10;58.00;;;;;;5084732;28;20480;-62
2023/06/01 05:47:13;;;;;;;9.90;3.13;;;25.70;57.00;;;;;;5067622;28;20559;-63
2023/06/01 05:49:52;;;;;;;9.23;3.07;;;26.40;56.10;;;;;;5086666;28;21224;-63
2023/06/01 05:52:29;;;;;;;7.47;3.10;;;27.00;55.00;;;;;;5083290;28;20463;-63
2023/06/01 05:55:06;;;;;;;9.30;3.27;;;27.50;54.30;;;;;;5086365;28;20556;-63
2023/06/01 05:57:40;;;;;;;10.13;3.00;;;28.20;53.30;;;;;;5088503;28;20469;-63
2023/06/01 06:00:12;;;;;;;13.00;3.20;;;;;;;;;;5066405;28;20460;-63
2023/06/01 06:02:45;;;;;;;7.27;2.67;;;29.20;51.50;;;;;;5083201;28;20543;-63
2023/06/01 06:05:17;;;;;;;8.83;3.10;;;29.80;50.30;;;;;;5082692;28;20831;-64
2023/06/01 06:07:52;;;;;;;8.00;3.33;;;30.20;49.20;;;;;;5086472;28;20528;-64
2023/06/01 06:10:30;;;;;;;5.70;2.50;;;30.50;48.10;;;;;;5067655;28;20445;-63
2023/06/01 06:13:07;;;;;;;10.93;3.27;;;30.00;47.70;;;;;;5085276;28;20921;-64
2023/06/01 06:15:42;;;;;;;8.00;2.60;;;29.40;48.30;;;;;;5083858;28;20461;-64
2023/06/01 06:18:13;;;;;;;5.90;2.53;;;28.80;48.60;;;;;;5084050;28;20538;-64
2023/06/01 06:20:50;;;;;;;7.47;3.30;;;28.30;49.10;;;;;;5083533;28;20513;-63
2023/06/01 06:23:30;;;;;;;11.00;3.10;;;27.80;49.40;;;;;;5083168;28;20450;-64
2023/06/01 06:26:04;;;;;;;8.10;3.10;;;27.20;49.80;;;;;;5087476;28;20452;-64
2023/06/01 06:28:35;;;;;;;7.73;2.63;;;26.50;50.10;;;;;;5084763;28;20610;-63
2023/06/01 06:31:11;;;;;;;7.93;2.80;;;25.90;50.70;;;;;;5085098;28;20567;-63
2023/06/01 06:33:43;;;;;;;9.50;3.17;;;25.30;51.50;;;;;;5084364;28;20457;-63
2023/06/01 06:36:15;;;;;;;7.00;2.97;;;24.70;52.00;;;;;;5086849;28;20993;-63
2023/06/01 06:38:48;;;;;;;6.50;3.70;;;24.20;52.60;;;;;;5083463;28;20591;-63
2023/06/01 06:41:26;;;;;;;7.30;2.80;;;23.80;53.10;;;;;;5083795;28;20449;-63
2023/06/01 06:43:58;;;;;;;9.47;3.00;;;23.40;53.50;;;;;;5083761;28;20448;-63
2023/06/01 06:46:35;;;;;;;6.47;2.60;;;23.10;53.40;;;;;;5081819;28;20457;-64
2023/06/01 06:49:15;;;;;;;9.33;3.00;;;22.60;53.70;;;;;;5085946;28;20460;-63
2023/06/01 06:51:47;;;;;;;9.77;3.33;;;22.20;54.20;;;;;;5081540;28;20488;-63
2023/06/01 06:54:19;;;;;;;7.93;3.00;;;21.80;54.60;;;;;;5082969;28;20461;-63
2023/06/01 06:56:51;;;;;;;7.53;2.77;;;21.60;55.20;;;;;;5084854;28;20487;-63
2023/06/01 06:59:31;;;;;;;7.23;2.87;;;21.50;55.40;;;;;;5082575;28;20480;-64
2023/06/01 07:02:19;;;;;;;6.73;2.90;;;21.40;55.70;;;;;;5081395;28;20583;-63
2023/06/01 07:04:58;;;;;;;8.03;3.17;;;21.30;56.20;;;;;;5085667;28;20563;-63
2023/06/01 07:07:27;;;;;;;8.40;3.00;;;21.20;56.40;;;;;;5084117;28;20568;-63
2023/06/01 07:09:59;;;;;;;11.90;3.20;;;21.20;56.40;;;;;;5070477;28;20957;-63
2023/06/01 07:12:46;;;;;;;9.00;3.30;;;21.30;56.70;;;;;;5083911;28;20917;-64
2023/06/01 07:15:21;;;;;;;8.13;2.40;;;21.30;56.90;;;;;;5082549;28;20865;-64
2023/06/01 07:17:59;;;;;;;11.80;3.57;;;21.30;57.10;;;;;;5083460;28;20581;-63
2023/06/01 07:20:33;;;;;;;6.20;2.80;;;21.30;57.20;;;;;;5083284;28;20457;-63
2023/06/01 07:23:08;;;;;;;7.67;3.27;;;21.30;57.30;;;;;;5083096;28;20783;-63
2023/06/01 07:25:39;;;;;;;10.30;2.90;;;21.30;57.50;;;;;;5086227;28;20549;-63
2023/06/01 07:28:09;;;;;;;15.73;3.47;;;21.40;57.50;;;;;;5082482;28;20913;-63
2023/06/01 07:30:38;;;;;;;9.47;3.00;;;21.40;57.50;;;;;;5082081;28;20491;-63
2023/06/01 07:33:16;;;;;;;6.93;2.73;;;21.40;57.50;;;;;;5080221;28;20802;-63
2023/06/01 07:38:37;;;;;;;5.80;2.80;;;21.50;57.60;;;;;;5082619;28;20565;-64
2023/06/01 07:41:19;;;;;;;8.73;2.73;;;21.60;57.60;;;;;;5083208;28;20475;-63
2023/06/01 07:43:59;;;;;;;10.27;2.53;;;21.60;57.50;;;;;;5083853;28;20456;-63
2023/06/01 07:46:33;;;;;;;7.97;3.73;;;21.60;57.60;;;;;;5081012;28;20492;-64
2023/06/01 07:49:22;;;;;;;6.70;2.93;;;21.70;57.50;;;;;;5082197;28;20471;-64
2023/06/01 07:52:03;;;;;;;7.27;2.37;;;21.70;57.50;;;;;;5077547;28;20460;-63
2023/06/01 07:54:36;;;;;;;8.23;2.83;;;21.80;57.50;;;;;;5085125;28;20848;-63
2023/06/01 07:57:14;;;;;;;6.80;2.60;;;21.80;57.40;;;;;;5084377;28;20465;-63
2023/06/01 07:59:55;;;;;;;5.63;2.60;;;21.90;57.30;;;;;;5082948;28;20477;-63
2023/06/01 08:02:29;;;;;;;9.70;3.47;;;21.90;57.40;;;;;;5079859;28;20521;-64
2023/06/01 08:05:10;;;;;;;7.43;3.10;;;21.90;57.40;;;;;;5079291;28;20458;-64
2023/06/01 08:07:44;;;;;;;9.83;2.70;;;22.00;57.30;;;;;;5082030;28;20473;-64
2023/06/01 08:10:18;;;;;;;9.23;2.40;;;22.00;57.30;;;;;;5078604;28;20449;-63
2023/06/01 08:12:50;;;;;;;8.17;2.83;;;22.10;57.30;;;;;;5080329;28;20452;-64
2023/06/01 08:15:28;;;;;;;10.40;2.90;;;22.10;57.20;;;;;;5081528;28;20518;-63
2023/06/01 08:18:01;;;;;;;8.63;2.80;;;22.20;57.10;;;;;;5082966;28;20544;-63
2023/06/01 08:20:43;;;;;;;8.13;2.60;;;22.20;57.10;;;;;;5080098;28;20856;-63
2023/06/01 08:23:16;;;;;;;5.90;2.73;;;22.20;57.00;;;;;;5063327;28;20569;-63
2023/06/01 08:25:58;;;;;;;5.50;2.70;;;22.20;57.00;;;;;;5087850;28;20522;-63
2023/06/01 08:28:30;;;;;;;7.80;3.20;;;22.20;57.00;;;;;;5084216;28;20930;-64
2023/06/01 08:31:12;;;;;;;8.67;2.90;;;22.20;57.00;;;;;;5086765;28;21119;-63
2023/06/01 08:33:44;;;;;;;8.00;2.93;;;22.30;57.00;;;;;;5080964;28;20464;-63
2023/06/01 08:36:20;;;;;;;8.53;3.00;;;22.30;57.00;;;;;;5084837;28;20540;-63
2023/06/01 08:38:57;;;;;;;6.07;2.73;;;22.40;57.10;;;;;;5085855;28;20847;-63
2023/06/01 08:41:38;;;;;;;9.57;2.87;;;22.40;57.20;;;;;;5087493;28;20445;-64
2023/06/01 08:44:11;;;;;;;8.67;2.90;;;22.40;57.30;;;;;;5087057;28;20556;-63
2023/06/01 08:46:53;;;;;;;8.30;2.90;;;22.40;57.30;;;;;;5085939;28;20460;-63
2023/06/01 08:49:27;;;;;;;8.43;3.00;;;22.50;57.30;;;;;;5087249;28;20515;-63
2023/06/01 08:52:18;;;;;;;13.27;3.17;;;22.50;57.50;;;;;;5080370;28;20444;-63
2023/06/01 08:54:50;;;;;;;8.67;3.40;;;22.60;57.50;;;;;;5086856;28;20455;-63
2023/06/01 08:57:21;;;;;;;6.97;2.50;;;22.60;57.50;;;;;;5087677;28;20909;-63
2023/06/01 08:59:53;;;;;;;7.70;3.00;;;22.60;57.60;;;;;;5087089;28;20577;-63
2023/06/01 09:02:27;;;;;;;7.47;2.70;;;22.60;57.60;;;;;;5085850;28;20577;-64
2023/06/01 09:04:59;;;;;;;8.00;2.67;;;22.60;57.70;;;;;;5084426;28;20790;-63
2023/06/01 09:07:37;;;;;;;7.80;2.30;;;22.60;57.80;;;;;;5087561;28;20557;-64
2023/06/01 09:10:14;;;;;;;7.53;2.70;;;22.60;57.90;;;;;;5081478;28;20480;-62
2023/06/01 09:12:56;;;;;;;5.33;2.30;;;22.60;57.90;;;;;;5086038;28;20470;-64
2023/06/01 09:15:30;;;;;;;7.00;2.37;;;22.60;58.10;;;;;;5086507;28;20465;-64
2023/06/01 09:18:10;;;;;;;6.90;2.73;;;22.60;58.20;;;;;;5087415;28;20461;-64
2023/06/01 09:20:44;;;;;;;7.40;2.30;;;22.60;58.30;;;;;;5086743;28;20480;-62
2023/06/01 09:23:29;;;;;;;7.83;2.80;;;22.60;58.30;;;;;;5085122;28;20539;-62
2023/06/01 09:26:08;;;;;;;11.50;2.77;;;22.60;58.10;;;;;;5088480;28;20547;-64
2023/06/01 09:28:56;;;;;;;8.73;2.70;;;22.70;58.20;;;;;;5084968;28;21243;-64
2023/06/01 09:31:44;;;;;;;5.53;2.43;;;22.80;58.00;;;;;;5087902;28;20477;-65
2023/06/01 09:34:21;;;;;;;7.47;2.50;;;22.80;58.00;;;;;;5068427;28;20799;-64
2023/06/01 09:37:04;;;;;;;10.10;2.60;;;22.70;58.00;;;;;;5069388;28;20448;-65
2023/06/01 09:39:38;;;;;;;7.13;2.33;;;22.70;58.00;;;;;;5088012;28;20464;-64
2023/06/01 09:42:10;;;;;;;5.47;2.23;;;22.80;57.90;;;;;;5069904;28;20463;-64
2023/06/01 09:44:43;;;;;;;9.23;3.00;;;22.90;57.60;;;;;;5085595;28;21081;-64
2023/06/01 09:47:18;;;;;;;7.93;2.10;;;23.00;57.40;;;;;;5084852;28;20457;-65
2023/06/01 09:50:03;;;;;;;13.10;3.03;;;23.00;57.30;;;;;;5085918;28;20510;-64
2023/06/01 09:55:22;;;;;;;5.80;2.10;;;23.10;56.60;;;;;;5084830;28;20467;-65
2023/06/01 09:57:52;;;;;;;7.50;2.57;;;23.20;56.30;;;;;;5084969;28;20449;-65
2023/06/01 10:00:25;;;;;;;5.47;2.50;;;23.30;56.10;;;;;;5084527;28;20464;-65
2023/06/01 10:03:00;;;;;;;10.77;2.73;;;23.40;55.90;;;;;;5083378;28;20467;-65
2023/06/01 10:05:31;;;;;;;6.20;1.90;;;23.40;55.80;;;;;;5082312;28;20475;-65
2023/06/01 10:08:02;;;;;;;6.77;2.10;;;23.40;55.80;;;;;;5083957;28;20477;-65
2023/06/01 10:10:50;;;;;;;8.10;2.23;;;23.50;55.60;;;;;;5088877;28;20460;-65
2023/06/01 10:13:22;;;;;;;9.60;2.33;;;23.50;55.10;;;;;;5082163;28;20532;-65
2023/06/01 10:16:03;;;;;;;7.03;1.90;;;23.40;54.90;;;;;;5084254;28;20584;-65
2023/06/01 10:18:40;;;;;;;9.53;2.17;;;23.40;55.10;;;;;;5065745;28;20507;-65
2023/06/01 10:21:14;;;;;;;6.07;2.93;;;23.40;54.90;;;;;;5084759;28;21056;-65
2023/06/01 10:26:56;;;;;;;6.53;2.47;;;23.50;54.80;;;;;;5071336;28;20464;-65
2023/06/01 10:29:36;;;;;;;12.27;2.70;;;23.50;54.60;;;;;;5084961;28;20997;-65
2023/06/01 10:32:57;;;;;;;5.67;2.27;;;23.60;54.30;;;;;;5087627;28;20473;-65
2023/06/01 10:36:04;;;;;;;8.93;2.90;;;23.50;54.00;;;;;;5069360;28;20467;-65
2023/06/01 10:38:35;;;;;;;6.53;2.20;;;23.50;53.60;;;;;;5073854;28;20453;-65
2023/06/01 10:41:30;;;;;;;7.00;2.40;;;23.50;53.40;;;;;;5081955;28;20965;-65
2023/06/01 10:44:48;;;;;;;6.87;2.17;;;23.50;53.00;;;;;;5087303;28;20996;-65
2023/06/01 10:47:58;;;;;;;7.37;2.93;;;23.50;53.40;;;;;;5084891;28;20898;-65
2023/06/01 10:50:29;;;;;;;7.73;2.47;;;23.60;53.70;;;;;;5083658;28;20514;-65
2023/06/01 10:53:31;;;;;;;5.80;2.33;;;23.70;53.90;;;;;;5082658;28;20458;-65
2023/06/01 10:56:32;;;;;;;5.37;2.33;;;23.80;53.70;;;;;;5081828;28;20461;-65
2023/06/01 10:59:15;;;;;;;10.50;3.07;;;23.80;53.40;;;;;;5030011;28;20472;-65
2023/06/01 11:01:56;;;;;;;4.70;2.00;;;23.90;53.80;;;;;;5086024;28;20818;-65
2023/06/01 11:04:38;;;;;;;6.70;2.40;;;23.90;53.80;;;;;;5086837;28;20453;-66
2023/06/01 11:07:41;;;;;;;6.80;2.20;;;23.90;53.70;;;;;;5082648;28;20891;-65
2023/06/01 11:10:59;;;;;;;7.50;2.17;;;24.00;53.60;;;;;;5065315;28;20468;-66
2023/06/01 11:13:42;;;;;;;7.67;2.10;;;24.00;53.70;;;;;;5064282;28;20479;-66
2023/06/01 11:16:34;;;;;;;9.57;2.43;;;24.10;53.30;;;;;;5086980;28;20453;-66
2023/06/01 11:19:06;;;;;;;6.73;2.27;;;24.20;52.50;;;;;;5081501;28;20499;-66
2023/06/01 11:21:39;;;;;;;5.90;2.50;;;24.20;52.50;;;;;;5066334;28;20906;-66
2023/06/01 11:24:16;;;;;;;8.93;2.80;;;24.20;52.30;;;;;;5079452;28;20517;-66
2023/06/01 11:26:56;;;;;;;5.90;2.00;;;24.30;52.10;;;;;;5085596;28;20452;-66
2023/06/01 11:29:30;;;;;;;12.03;2.37;;;24.30;51.70;;;;;;5085323;28;20459;-66
2023/06/01 11:32:10;;;;;;;6.93;2.57;;;24.30;51.80;;;;;;5085197;28;20484;-66
2023/06/01 11:34:43;;;;;;;8.00;2.37;;;24.40;52.10;;;;;;5084006;28;20452;-66
2023/06/01 11:37:14;;;;;;;8.37;2.20;;;24.40;52.30;;;;;;5085046;28;20460;-66
2023/06/01 11:39:47;;;;;;;6.70;2.43;;;24.40;52.10;;;;;;5078960;28;20450;-66
2023/06/01 11:42:19;;;;;;;5.00;2.20;;;24.40;52.10;;;;;;5070628;28;20869;-66
2023/06/01 11:44:58;;;;;;;8.53;2.80;;;24.40;51.70;;;;;;5087843;28;20526;-66
2023/06/01 11:47:37;;;;;;;9.90;2.93;;;24.50;52.10;;;;;;5079964;28;20452;-66
2023/06/01 11:50:21;;;;;;;8.70;3.03;;;24.60;52.30;;;;;;5080309;28;20460;-66
2023/06/01 11:53:03;;;;;;;6.37;2.20;;;24.60;51.80;;;;;;5081037;28;20799;-66
2023/06/01 11:55:36;;;;;;;7.10;2.37;;;24.70;51.40;;;;;;5079028;28;20561;-66
2023/06/01 11:58:15;;;;;;;5.40;1.87;;;24.70;51.10;;;;;;5083283;28;21209;-66
2023/06/01 12:00:48;;;;;;;5.90;2.03;;;24.70;51.00;;;;;;5085802;28;20488;-66
2023/06/01 12:03:26;;;;;;;10.03;2.27;;;24.70;50.90;;;;;;5087548;28;20460;-66
2023/06/01 12:06:09;;;;;;;8.87;2.40;;;24.80;50.60;;;;;;5084934;28;20459;-66
2023/06/01 12:08:43;;;;;;;6.90;2.30;;;24.80;50.50;;;;;;5084913;28;20464;-66
2023/06/01 12:11:19;;;;;;;7.50;2.27;;;24.80;50.30;;;;;;5081739;28;20519;-66
2023/06/01 12:13:51;;;;;;;7.40;2.43;;;24.80;50.30;;;;;;5082534;28;20484;-66
2023/06/01 12:16:25;;;;;;;7.57;2.57;;;24.80;50.30;;;;;;5074315;28;20448;-66
2023/06/01 12:19:13;;;;;;;7.50;2.83;;;24.80;50.20;;;;;;5086688;28;20497;-66
2023/06/01 12:21:55;;;;;;;8.70;2.70;;;24.90;50.50;;;;;;5086706;28;20989;-66
2023/06/01 12:24:30;;;;;;;7.70;2.27;;;24.90;50.30;;;;;;5088598;28;20482;-66
2023/06/01 12:27:16;;;;;;;7.57;2.27;;;24.90;50.30;;;;;;5085043;28;20529;-66
2023/06/01 12:29:58;;;;;;;7.50;2.47;;;24.90;50.00;;;;;;5089656;28;20538;-66
2023/06/01 12:32:45;;;;;;;11.67;2.13;;;24.90;49.50;;;;;;5070301;28;20534;-67
2023/06/01 12:35:23;;;;;;;7.47;2.23;;;24.90;49.60;;;;;;5087298;28;20622;-66
2023/06/01 12:38:06;;;;;;;10.27;3.10;;;25.00;49.60;;;;;;5084511;28;20487;-66
2023/06/01 12:40:41;;;;;;;8.63;2.40;;;25.00;49.40;;;;;;5069747;28;21098;-66
2023/06/01 12:43:20;;;;;;;7.43;2.40;;;24.90;49.80;;;;;;5086774;28;20483;-66
2023/06/01 12:45:52;;;;;;;7.17;2.77;;;25.00;49.70;;;;;;5086393;28;20463;-67
2023/06/01 12:48:39;;;;;;;6.23;2.10;;;25.00;49.80;;;;;;5087321;28;20488;-66
2023/06/01 12:51:14;;;;;;;8.70;2.50;;;25.00;49.60;;;;;;5085852;28;20454;-66
2023/06/01 12:53:46;;;;;;;12.43;2.93;;;25.00;49.90;;;;;;5084040;28;20468;-66
2023/06/01 12:56:17;;;;;;;6.50;2.60;;;25.00;50.30;;;;;;5070882;28;21200;-66
2023/06/01 12:58:57;;;;;;;9.50;2.63;;;25.10;50.40;;;;;;5089032;28;21022;-66
2023/06/01 13:01:29;;;;;;;6.10;2.13;;;25.10;50.40;;;;;;5086102;28;20565;-66
2023/06/01 13:04:03;;;;;;;6.00;1.97;;;25.20;50.50;;;;;;5087125;28;20462;-66
2023/06/01 13:06:37;;;;;;;6.57;2.17;;;25.20;50.40;;;;;;5089122;28;20447;-66
2023/06/01 13:09:11;;;;;;;9.33;2.60;;;25.20;50.50;;;;;;5087753;28;20448;-66
2023/06/01 13:11:44;;;;;;;7.40;2.70;;;25.20;50.80;;;;;;5087123;28;20450;-66
2023/06/01 13:14:16;;;;;;;6.37;2.30;;;25.30;50.60;;;;;;5083121;28;20460;-66
2023/06/01 13:16:54;;;;;;;6.90;2.50;;;25.30;51.00;;;;;;5083935;28;20539;-66
2023/06/01 13:19:31;;;;;;;4.93;2.30;;;25.30;51.20;;;;;;5084066;28;20539;-66
2023/06/01 13:22:06;;;;;;;6.60;2.57;;;25.40;51.30;;;;;;5086944;28;20554;-66
2023/06/01 13:24:37;;;;;;;9.03;2.53;;;25.40;51.10;;;;;;5085906;28;20456;-65
2023/06/01 13:27:30;;;;;;;6.40;2.57;;;25.50;51.60;;;;;;5087750;28;20637;-65
2023/06/01 13:30:09;;;;;;;6.80;2.50;;;25.50;51.80;;;;;;5084537;28;20522;-65
2023/06/01 13:32:43;;;;;;;5.83;2.47;;;25.50;51.60;;;;;;5082454;28;20832;-66
2023/06/01 13:35:22;;;;;;;7.97;2.43;;;25.50;51.60;;;;;;5089561;28;20468;-65
2023/06/01 13:37:57;;;;;;;6.10;2.10;;;25.50;51.60;;;;;;5084863;28;20476;-65
2023/06/01 13:40:26;;;;;;;8.53;2.70;;;25.60;51.50;;;;;;5082555;28;20551;-65
2023/06/01 13:43:00;;;;;;;8.53;2.47;;;25.60;51.50;;;;;;5082890;28;20495;-66
2023/06/01 13:45:34;;;;;;;7.10;2.40;;;25.60;51.50;;;;;;5080133;28;20453;-65
2023/06/01 13:48:06;;;;;;;7.97;3.00;;;25.70;51.40;;;;;;5082567;28;20453;-65
2023/06/01 13:50:51;;;;;;;7.93;2.83;;;25.80;51.20;;;;;;5084556;28;20529;-67
2023/06/01 13:53:25;;;;;;;6.80;2.40;;;25.80;50.80;;;;;;5088964;28;20470;-65
2023/06/01 13:56:10;;;;;;;8.57;3.07;;;25.80;51.30;;;;;;5086133;28;20495;-65
2023/06/01 13:58:44;;;;;;;6.87;2.67;;;25.90;51.30;;;;;;5083079;28;21063;-65
2023/06/01 14:01:26;;;;;;;8.70;2.50;;;25.90;51.30;;;;;;5061950;28;20843;-65